createdAt,value
2023-02-12T00:00:28.337Z,8.39
2023-02-12T00:01:28.316Z,8.35
2023-02-12T00:02:28.352Z,8.39
2023-02-12T00:03:28.325Z,8.45
2023-02-12T00:04:28.284Z,8.36
2023-02-12T00:05:28.294Z,8.35
2023-02-12T00:06:28.269Z,8.35
2023-02-12T00:07:28.260Z,8.44
2023-02-12T00:08:28.244Z,8.37
2023-02-12T00:09:28.228Z,8.37
2023-02-12T00:10:28.214Z,8.40
2023-02-12T00:11:28.242Z,8.44
2023-02-12T00:12:28.191Z,8.47
2023-02-12T00:13:28.206Z,8.35
2023-02-12T00:14:28.198Z,8.37
2023-02-12T00:15:28.213Z,8.39
2023-02-12T00:16:28.202Z,8.37
2023-02-12T00:17:28.153Z,8.47
2023-02-12T00:18:28.125Z,8.47
2023-02-12T00:19:28.121Z,8.39
2023-02-12T00:20:28.102Z,8.36
2023-02-12T00:21:28.115Z,8.47
2023-02-12T00:22:28.086Z,8.47
2023-02-12T00:23:28.074Z,8.57
2023-02-12T00:24:28.059Z,8.44
2023-02-12T00:25:28.061Z,8.51
2023-02-12T00:26:28.063Z,8.47
2023-02-12T00:27:28.028Z,8.37
2023-02-12T00:28:28.059Z,8.42
2023-02-12T00:29:28.023Z,8.45
2023-02-12T00:30:28.058Z,8.33
2023-02-12T00:31:28.289Z,8.42
2023-02-12T00:32:27.999Z,8.36
2023-02-12T00:33:27.967Z,8.50
2023-02-12T00:34:27.952Z,8.37
2023-02-12T00:35:27.963Z,8.42
2023-02-12T00:36:27.956Z,8.42
2023-02-12T00:37:27.918Z,8.45
2023-02-12T00:38:27.906Z,8.39
2023-02-12T00:39:27.904Z,8.42
2023-02-12T00:40:27.899Z,8.47
2023-02-12T00:41:27.878Z,8.50
2023-02-12T00:42:27.865Z,8.39
2023-02-12T00:43:27.854Z,8.37
2023-02-12T00:44:27.850Z,8.47
2023-02-12T00:45:27.870Z,8.37
2023-02-12T00:46:27.890Z,8.48
2023-02-12T00:47:27.810Z,8.35
2023-02-12T00:48:27.813Z,8.30
2023-02-12T00:49:27.788Z,8.32
2023-02-12T00:50:30.706Z,8.36
2023-02-12T00:51:27.782Z,8.33
2023-02-12T00:52:27.754Z,8.37
2023-02-12T00:53:27.750Z,8.47
2023-02-12T00:54:27.731Z,8.36
2023-02-12T00:55:27.723Z,8.39
2023-02-12T00:56:27.738Z,8.37
2023-02-12T00:57:27.698Z,8.37
2023-02-12T00:58:27.698Z,8.37
2023-02-12T00:59:27.681Z,8.44
2023-02-12T01:00:27.668Z,8.33
2023-02-12T01:01:27.743Z,8.36
2023-02-12T01:02:27.646Z,8.39
2023-02-12T01:03:27.635Z,8.35
2023-02-12T01:04:27.626Z,8.26
2023-02-12T01:05:27.755Z,8.36
2023-02-12T01:06:27.645Z,8.36
2023-02-12T01:07:27.601Z,8.35
2023-02-12T01:08:27.596Z,8.29
2023-02-12T01:09:27.574Z,8.21
2023-02-12T01:10:27.578Z,8.32
2023-02-12T01:11:27.592Z,8.29
2023-02-12T01:12:27.543Z,8.30
2023-02-12T01:13:27.546Z,8.32
2023-02-12T01:14:27.519Z,8.18
2023-02-12T01:15:27.530Z,8.30
2023-02-12T01:16:27.613Z,8.26
2023-02-12T01:17:27.505Z,8.29
2023-02-12T01:18:27.482Z,8.21
2023-02-12T01:19:27.477Z,8.25
2023-02-12T01:20:27.466Z,8.22
2023-02-12T01:21:27.474Z,8.18
2023-02-12T01:22:27.442Z,8.30
2023-02-12T01:23:27.424Z,8.26
2023-02-12T01:24:27.416Z,8.28
2023-02-12T01:25:27.418Z,8.30
2023-02-12T01:26:27.452Z,8.22
2023-02-12T01:27:27.384Z,8.29
2023-02-12T01:28:27.398Z,8.18
2023-02-12T01:29:27.363Z,8.33
2023-02-12T01:30:27.365Z,8.35
2023-02-12T01:31:27.452Z,8.32
2023-02-12T01:32:27.458Z,8.29
2023-02-12T01:33:27.332Z,8.32
2023-02-12T01:34:27.348Z,8.32
2023-02-12T01:35:27.299Z,8.33
2023-02-12T01:36:27.310Z,8.35
2023-02-12T01:37:27.272Z,8.28
2023-02-12T01:38:27.260Z,8.28
2023-02-12T01:39:27.251Z,8.25
2023-02-12T01:40:27.252Z,8.33
2023-02-12T01:41:27.262Z,8.30
2023-02-12T01:42:27.235Z,8.30
2023-02-12T01:43:27.210Z,8.30
2023-02-12T01:44:27.223Z,8.35
2023-02-12T01:45:27.187Z,8.26
2023-02-12T01:46:27.240Z,8.37
2023-02-12T01:47:27.164Z,8.33
2023-02-12T01:48:27.153Z,8.37
2023-02-12T01:49:27.159Z,8.40
2023-02-12T01:50:27.131Z,8.35
2023-02-12T01:51:27.145Z,8.33
2023-02-12T01:52:27.110Z,8.29
2023-02-12T01:53:27.096Z,8.40
2023-02-12T01:54:27.084Z,8.37
2023-02-12T01:55:27.081Z,8.30
2023-02-12T01:56:27.094Z,8.33
2023-02-12T01:57:27.064Z,8.28
2023-02-12T01:58:27.046Z,8.33
2023-02-12T01:59:27.030Z,8.36
2023-02-12T02:00:27.030Z,8.33
2023-02-12T02:01:27.188Z,8.33
2023-02-12T02:02:27.008Z,8.33
2023-02-12T02:03:27.100Z,8.26
2023-02-12T02:04:26.992Z,8.36
2023-02-12T02:05:26.983Z,8.35
2023-02-12T02:06:26.988Z,8.37
2023-02-12T02:07:26.946Z,8.35
2023-02-12T02:08:26.940Z,8.30
2023-02-12T02:09:26.926Z,8.36
2023-02-12T02:10:26.912Z,8.39
2023-02-12T02:11:26.933Z,8.33
2023-02-12T02:12:26.897Z,8.39
2023-02-12T02:13:26.878Z,8.33
2023-02-12T02:14:26.893Z,8.29
2023-02-12T02:15:26.858Z,8.33
2023-02-12T02:16:26.923Z,8.39
2023-02-12T02:17:26.832Z,8.37
2023-02-12T02:18:26.832Z,8.36
2023-02-12T02:19:26.808Z,8.36
2023-02-12T02:20:26.821Z,8.33
2023-02-12T02:21:26.817Z,8.29
2023-02-12T02:22:26.793Z,8.29
2023-02-12T02:23:26.773Z,8.32
2023-02-12T02:24:26.775Z,8.30
2023-02-12T02:25:26.770Z,8.32
2023-02-12T02:26:26.744Z,8.17
2023-02-12T02:27:26.729Z,8.18
2023-02-12T02:28:26.838Z,8.20
2023-02-12T02:29:26.701Z,8.12
2023-02-12T02:30:26.710Z,8.14
2023-02-12T02:31:26.888Z,8.07
2023-02-12T02:32:26.675Z,8.14
2023-02-12T02:33:26.665Z,8.18
2023-02-12T02:34:26.644Z,8.12
2023-02-12T02:35:26.643Z,8.08
2023-02-12T02:36:26.661Z,8.18
2023-02-12T02:37:26.632Z,8.08
2023-02-12T02:38:26.603Z,8.11
2023-02-12T02:39:26.594Z,8.15
2023-02-12T02:40:26.580Z,8.22
2023-02-12T02:41:26.584Z,8.17
2023-02-12T02:42:26.563Z,8.18
2023-02-12T02:43:26.550Z,8.25
2023-02-12T02:44:26.562Z,8.20
2023-02-12T02:45:26.523Z,8.20
2023-02-12T02:46:26.578Z,8.20
2023-02-12T02:47:26.498Z,8.20
2023-02-12T02:48:26.498Z,8.25
2023-02-12T02:49:26.489Z,8.26
2023-02-12T02:50:26.479Z,8.36
2023-02-12T02:51:26.477Z,8.33
2023-02-12T02:52:26.466Z,8.33
2023-02-12T02:53:26.478Z,8.33
2023-02-12T02:54:26.458Z,8.30
2023-02-12T02:55:26.424Z,8.35
2023-02-12T02:56:26.447Z,8.28
2023-02-12T02:57:26.407Z,8.28
2023-02-12T02:58:26.385Z,8.28
2023-02-12T02:59:26.372Z,8.39
2023-02-12T03:00:26.365Z,8.35
2023-02-12T03:01:26.444Z,8.35
2023-02-12T03:02:26.359Z,8.35
2023-02-12T03:03:26.425Z,8.40
2023-02-12T03:04:26.322Z,8.44
2023-02-12T03:05:26.313Z,8.36
2023-02-12T03:06:26.298Z,8.36
2023-02-12T03:07:26.302Z,8.42
2023-02-12T03:08:26.280Z,8.33
2023-02-12T03:09:26.283Z,8.36
2023-02-12T03:10:26.254Z,8.42
2023-02-12T03:11:26.238Z,8.37
2023-02-12T03:12:26.249Z,8.39
2023-02-12T03:13:26.228Z,8.33
2023-02-12T03:14:26.207Z,8.29
2023-02-12T03:15:26.208Z,8.36
2023-02-12T03:16:26.215Z,8.26
2023-02-12T03:17:26.189Z,8.33
2023-02-12T03:18:26.167Z,8.28
2023-02-12T03:19:26.170Z,8.29
2023-02-12T03:20:26.143Z,8.28
2023-02-12T03:21:26.136Z,8.21
2023-02-12T03:22:26.141Z,8.15
2023-02-12T03:23:26.117Z,8.12
2023-02-12T03:24:26.122Z,8.12
2023-02-12T03:25:26.120Z,8.12
2023-02-12T03:26:26.084Z,8.07
2023-02-12T03:27:26.106Z,8.10
2023-02-12T03:28:26.116Z,8.21
2023-02-12T03:29:26.046Z,8.12
2023-02-12T03:30:26.197Z,8.21
2023-02-12T03:31:26.148Z,8.14
2023-02-12T03:32:26.028Z,8.11
2023-02-12T03:33:26.002Z,8.12
2023-02-12T03:34:25.995Z,8.07
2023-02-12T03:35:25.979Z,8.14
2023-02-12T03:36:26.004Z,8.17
2023-02-12T03:37:25.987Z,8.11
2023-02-12T03:38:25.952Z,8.20
2023-02-12T03:39:25.936Z,8.17
2023-02-12T03:40:25.940Z,8.22
2023-02-12T03:41:26.389Z,8.20
2023-02-12T03:42:25.920Z,8.26
2023-02-12T03:43:25.897Z,8.20
2023-02-12T03:44:25.896Z,8.30
2023-02-12T03:45:25.876Z,8.29
2023-02-12T03:46:25.899Z,8.17
2023-02-12T03:47:25.879Z,8.33
2023-02-12T03:48:25.841Z,8.29
2023-02-12T03:49:25.830Z,8.39
2023-02-12T03:50:25.827Z,8.33
2023-02-12T03:51:25.827Z,8.35
2023-02-12T03:52:25.826Z,8.36
2023-02-12T03:53:25.786Z,8.37
2023-02-12T03:54:25.778Z,8.35
2023-02-12T03:55:25.764Z,8.39
2023-02-12T03:56:25.750Z,8.37
2023-02-12T03:57:25.792Z,8.37
2023-02-12T03:58:25.736Z,8.39
2023-02-12T03:59:25.717Z,8.42
2023-02-12T04:00:25.705Z,8.33
2023-02-12T04:01:25.832Z,8.30
2023-02-12T04:02:25.729Z,8.33
2023-02-12T04:03:25.673Z,8.37
2023-02-12T04:04:25.775Z,8.45
2023-02-12T04:05:25.675Z,8.35
2023-02-12T04:06:25.665Z,8.33
2023-02-12T04:07:25.644Z,8.37
2023-02-12T04:08:25.635Z,8.26
2023-02-12T04:09:25.603Z,8.33
2023-02-12T04:10:25.603Z,8.33
2023-02-12T04:11:25.585Z,8.33
2023-02-12T04:12:25.586Z,8.32
2023-02-12T04:13:25.580Z,8.36
2023-02-12T04:14:25.550Z,8.32
2023-02-12T04:15:25.541Z,8.26
2023-02-12T04:16:25.564Z,8.32
2023-02-12T04:17:25.543Z,8.35
2023-02-12T04:18:25.514Z,8.35
2023-02-12T04:19:25.495Z,8.32
2023-02-12T04:20:25.488Z,8.33
2023-02-12T04:21:25.485Z,8.32
2023-02-12T04:22:25.497Z,8.35
2023-02-12T04:23:25.456Z,8.18
2023-02-12T04:24:25.447Z,8.20
2023-02-12T04:25:25.432Z,8.28
2023-02-12T04:26:25.417Z,8.22
2023-02-12T04:27:25.439Z,8.18
2023-02-12T04:28:25.446Z,8.21
2023-02-12T04:29:25.416Z,8.20
2023-02-12T04:30:25.608Z,8.25
2023-02-12T04:31:25.497Z,8.17
2023-02-12T04:32:25.387Z,8.17
2023-02-12T04:33:25.348Z,8.21
2023-02-12T04:34:25.348Z,8.14
2023-02-12T04:35:25.344Z,8.11
2023-02-12T04:36:25.320Z,8.17
2023-02-12T04:37:25.337Z,8.17
2023-02-12T04:38:25.317Z,8.07
2023-02-12T04:39:25.301Z,8.10
2023-02-12T04:40:25.285Z,8.07
2023-02-12T04:41:25.261Z,8.10
2023-02-12T04:42:25.268Z,8.07
2023-02-12T04:43:25.246Z,8.14
2023-02-12T04:44:25.238Z,7.97
2023-02-12T04:45:25.286Z,7.93
2023-02-12T04:46:25.246Z,7.96
2023-02-12T04:47:25.273Z,8.00
2023-02-12T04:48:25.195Z,7.96
2023-02-12T04:49:25.177Z,7.97
2023-02-12T04:50:25.177Z,7.96
2023-02-12T04:51:25.210Z,8.00
2023-02-12T04:52:25.173Z,8.02
2023-02-12T04:53:25.140Z,7.96
2023-02-12T04:54:25.132Z,7.97
2023-02-12T04:55:25.121Z,7.96
2023-02-12T04:56:25.107Z,7.96
2023-02-12T04:57:25.148Z,7.96
2023-02-12T04:58:25.084Z,8.00
2023-02-12T04:59:25.073Z,8.03
2023-02-12T05:00:25.061Z,8.02
2023-02-12T05:01:25.161Z,8.10
2023-02-12T05:02:25.104Z,8.12
2023-02-12T05:03:25.029Z,8.10
2023-02-12T05:04:25.020Z,8.10
2023-02-12T05:05:25.095Z,8.12
2023-02-12T05:06:24.997Z,8.10
2023-02-12T05:07:25.002Z,8.14
2023-02-12T05:08:24.974Z,8.11
2023-02-12T05:09:24.963Z,8.10
2023-02-12T05:10:24.952Z,8.08
2023-02-12T05:11:24.943Z,8.14
2023-02-12T05:12:24.947Z,8.15
2023-02-12T05:13:24.957Z,8.17
2023-02-12T05:14:24.906Z,8.18
2023-02-12T05:15:24.899Z,8.15
2023-02-12T05:16:24.886Z,8.15
2023-02-12T05:17:24.941Z,8.22
2023-02-12T05:18:24.874Z,8.20
2023-02-12T05:19:24.867Z,8.28
2023-02-12T05:20:24.842Z,8.29
2023-02-12T05:21:24.851Z,8.28
2023-02-12T05:22:24.837Z,8.21
2023-02-12T05:23:24.811Z,8.29
2023-02-12T05:24:24.799Z,8.33
2023-02-12T05:25:24.787Z,8.29
2023-02-12T05:26:24.779Z,8.26
2023-02-12T05:27:24.833Z,8.26
2023-02-12T05:28:24.805Z,8.28
2023-02-12T05:29:24.744Z,8.26
2023-02-12T05:30:24.739Z,8.17
2023-02-12T05:31:24.946Z,8.21
2023-02-12T05:32:24.775Z,8.22
2023-02-12T05:33:24.727Z,8.26
2023-02-12T05:34:24.690Z,8.25
2023-02-12T05:35:24.678Z,8.21
2023-02-12T05:36:24.668Z,8.18
2023-02-12T05:37:24.676Z,8.21
2023-02-12T05:38:24.646Z,8.25
2023-02-12T05:39:24.638Z,8.25
2023-02-12T05:40:24.623Z,8.14
2023-02-12T05:41:24.616Z,8.15
2023-02-12T05:42:24.601Z,8.18
2023-02-12T05:43:24.611Z,8.17
2023-02-12T05:44:24.587Z,8.20
2023-02-12T05:45:24.568Z,8.15
2023-02-12T05:46:24.630Z,8.17
2023-02-12T05:47:24.549Z,8.18
2023-02-12T05:48:24.605Z,8.17
2023-02-12T05:49:24.547Z,8.15
2023-02-12T05:50:24.513Z,8.20
2023-02-12T05:51:24.507Z,8.15
2023-02-12T05:52:24.514Z,8.18
2023-02-12T05:53:24.482Z,8.10
2023-02-12T05:54:24.468Z,8.15
2023-02-12T05:55:24.467Z,8.20
2023-02-12T05:56:24.454Z,8.12
2023-02-12T05:57:24.495Z,8.15
2023-02-12T05:58:24.440Z,8.20
2023-02-12T05:59:24.417Z,8.25
2023-02-12T06:00:24.405Z,8.20
2023-02-12T06:01:24.404Z,8.21
2023-02-12T06:02:24.526Z,8.18
2023-02-12T06:03:24.370Z,8.25
2023-02-12T06:04:24.457Z,8.25
2023-02-12T06:05:24.370Z,8.21
2023-02-12T06:06:24.335Z,8.26
2023-02-12T06:07:24.347Z,8.26
2023-02-12T06:08:24.318Z,8.22
2023-02-12T06:09:24.314Z,8.20
2023-02-12T06:10:24.293Z,8.26
2023-02-12T06:11:24.284Z,8.20
2023-02-12T06:12:24.297Z,8.21
2023-02-12T06:13:24.264Z,8.20
2023-02-12T06:14:24.250Z,8.17
2023-02-12T06:15:24.239Z,8.18
2023-02-12T06:16:24.339Z,8.15
2023-02-12T06:17:24.216Z,8.17
2023-02-12T06:18:24.233Z,8.10
2023-02-12T06:19:24.199Z,8.14
2023-02-12T06:20:24.185Z,8.12
2023-02-12T06:21:24.206Z,8.17
2023-02-12T06:22:24.163Z,8.17
2023-02-12T06:23:24.163Z,8.14
2023-02-12T06:24:24.143Z,8.20
2023-02-12T06:25:24.133Z,8.11
2023-02-12T06:26:24.130Z,8.22
2023-02-12T06:27:24.115Z,8.14
2023-02-12T06:28:24.199Z,8.17
2023-02-12T06:29:24.089Z,8.15
2023-02-12T06:30:24.076Z,8.21
2023-02-12T06:31:24.252Z,8.17
2023-02-12T06:32:24.059Z,8.14
2023-02-12T06:33:24.069Z,8.18
2023-02-12T06:34:24.047Z,8.18
2023-02-12T06:35:24.024Z,8.17
2023-02-12T06:36:24.026Z,8.18
2023-02-12T06:37:24.022Z,8.18
2023-02-12T06:38:24.013Z,8.22
2023-02-12T06:39:23.985Z,8.15
2023-02-12T06:40:23.976Z,8.22
2023-02-12T06:41:23.968Z,8.21
2023-02-12T06:42:23.946Z,8.17
2023-02-12T06:43:23.982Z,8.15
2023-02-12T06:44:23.924Z,8.17
2023-02-12T06:45:23.914Z,8.20
2023-02-12T06:46:24.041Z,8.20
2023-02-12T06:47:23.896Z,8.20
2023-02-12T06:48:23.930Z,8.20
2023-02-12T06:49:23.889Z,8.22
2023-02-12T06:50:23.867Z,8.30
2023-02-12T06:51:23.859Z,8.25
2023-02-12T06:52:23.836Z,8.28
2023-02-12T06:53:23.871Z,8.28
2023-02-12T06:54:23.838Z,8.28
2023-02-12T06:55:23.811Z,8.28
2023-02-12T06:56:23.801Z,8.21
2023-02-12T06:57:23.785Z,8.20
2023-02-12T06:58:23.774Z,8.21
2023-02-12T06:59:23.785Z,8.17
2023-02-12T07:00:23.755Z,8.20
2023-02-12T07:01:23.753Z,8.21
2023-02-12T07:02:23.731Z,8.17
2023-02-12T07:03:23.754Z,8.22
2023-02-12T07:04:23.738Z,8.25
2023-02-12T07:05:23.711Z,8.25
2023-02-12T07:06:23.701Z,8.18
2023-02-12T07:07:23.679Z,8.21
2023-02-12T07:08:23.677Z,8.21
2023-02-12T07:09:23.703Z,8.21
2023-02-12T07:10:23.652Z,8.28
2023-02-12T07:11:23.649Z,8.17
2023-02-12T07:12:23.626Z,8.30
2023-02-12T07:13:23.637Z,8.33
2023-02-12T07:14:23.600Z,8.32
2023-02-12T07:15:23.601Z,8.33
2023-02-12T07:16:23.672Z,8.30
2023-02-12T07:17:23.585Z,8.29
2023-02-12T07:18:23.631Z,8.36
2023-02-12T07:19:23.596Z,8.25
2023-02-12T07:20:23.538Z,8.40
2023-02-12T07:21:23.554Z,8.37
2023-02-12T07:22:23.535Z,8.30
2023-02-12T07:23:23.569Z,8.32
2023-02-12T07:24:23.509Z,8.30
2023-02-12T07:25:23.512Z,8.32
2023-02-12T07:26:23.495Z,8.35
2023-02-12T07:27:23.468Z,8.42
2023-02-12T07:28:23.482Z,8.32
2023-02-12T07:29:23.464Z,8.32
2023-02-12T07:30:23.429Z,8.39
2023-02-12T07:31:23.599Z,8.40
2023-02-12T07:32:23.409Z,8.33
2023-02-12T07:33:23.397Z,8.37
2023-02-12T07:34:23.414Z,8.36
2023-02-12T07:35:23.394Z,8.36
2023-02-12T07:36:23.366Z,8.37
2023-02-12T07:37:23.354Z,8.33
2023-02-12T07:38:23.364Z,8.42
2023-02-12T07:39:23.337Z,8.37
2023-02-12T07:40:23.322Z,8.40
2023-02-12T07:41:23.358Z,8.50
2023-02-12T07:42:23.310Z,8.51
2023-02-12T07:43:23.323Z,8.42
2023-02-12T07:44:23.278Z,8.42
2023-02-12T07:45:23.305Z,8.50
2023-02-12T07:46:23.258Z,8.42
2023-02-12T07:47:23.245Z,8.42
2023-02-12T07:48:23.241Z,8.50
2023-02-12T07:49:23.229Z,8.54
2023-02-12T07:50:23.216Z,8.60
2023-02-12T07:51:23.209Z,8.48
2023-02-12T07:52:23.190Z,8.51
2023-02-12T07:53:23.194Z,8.47
2023-02-12T07:54:23.173Z,8.50
2023-02-12T07:55:23.158Z,8.47
2023-02-12T07:56:23.159Z,8.53
2023-02-12T07:57:23.157Z,8.48
2023-02-12T07:58:23.175Z,8.57
2023-02-12T07:59:23.114Z,8.63
2023-02-12T08:00:23.103Z,8.57
2023-02-12T08:01:23.095Z,8.63
2023-02-12T08:02:23.113Z,8.57
2023-02-12T08:03:23.096Z,8.60
2023-02-12T08:04:23.144Z,8.63
2023-02-12T08:05:23.055Z,8.66
2023-02-12T08:06:23.097Z,8.65
2023-02-12T08:07:23.045Z,8.71
2023-02-12T08:08:23.038Z,8.75
2023-02-12T08:09:23.084Z,8.75
2023-02-12T08:10:23.000Z,8.71
2023-02-12T08:11:23.001Z,8.73
2023-02-12T08:12:22.975Z,8.73
2023-02-12T08:13:23.017Z,8.73
2023-02-12T08:14:22.973Z,8.71
2023-02-12T08:15:22.945Z,8.69
2023-02-12T08:16:22.979Z,8.72
2023-02-12T08:17:22.930Z,8.76
2023-02-12T08:18:22.924Z,8.72
2023-02-12T08:19:26.453Z,8.75
2023-02-12T08:20:22.890Z,8.73
2023-02-12T08:21:22.890Z,8.68
2023-02-12T08:22:22.871Z,8.66
2023-02-12T08:23:22.875Z,8.73
2023-02-12T08:24:22.858Z,8.73
2023-02-12T08:25:22.837Z,8.83
2023-02-12T08:26:22.863Z,8.81
2023-02-12T08:27:22.817Z,8.84
2023-02-12T08:28:22.905Z,8.88
2023-02-12T08:29:22.872Z,8.91
2023-02-12T08:30:22.785Z,8.90
2023-02-12T08:31:23.001Z,8.90
2023-02-12T08:32:22.773Z,8.86
2023-02-12T08:33:22.766Z,8.96
2023-02-12T08:34:22.750Z,8.90
2023-02-12T08:35:22.748Z,8.99
2023-02-12T08:36:22.718Z,8.94
2023-02-12T08:37:22.715Z,8.99
2023-02-12T08:38:22.699Z,8.91
2023-02-12T08:39:22.691Z,8.96
2023-02-12T08:40:22.692Z,9.02
2023-02-12T08:41:22.667Z,9.02
2023-02-12T08:42:22.659Z,8.94
2023-02-12T08:43:22.676Z,8.97
2023-02-12T08:44:22.824Z,8.96
2023-02-12T08:45:22.652Z,8.93
2023-02-12T08:46:22.801Z,8.97
2023-02-12T08:47:22.603Z,8.97
2023-02-12T08:48:22.623Z,9.01
2023-02-12T08:49:22.582Z,9.04
2023-02-12T08:50:22.569Z,9.05
2023-02-12T08:51:22.559Z,9.09
2023-02-12T08:52:22.603Z,9.13
2023-02-12T08:53:22.547Z,9.13
2023-02-12T08:54:22.526Z,9.10
2023-02-12T08:55:22.512Z,9.13
2023-02-12T08:56:22.497Z,9.09
2023-02-12T08:57:22.494Z,9.16
2023-02-12T08:58:22.508Z,9.21
2023-02-12T08:59:22.467Z,9.25
2023-02-12T09:00:22.479Z,9.20
2023-02-12T09:01:22.592Z,9.21
2023-02-12T09:02:22.488Z,9.12
2023-02-12T09:03:22.442Z,9.20
2023-02-12T09:04:30.097Z,9.21
2023-02-12T09:05:22.434Z,9.16
2023-02-12T09:06:22.412Z,9.25
2023-02-12T09:07:22.382Z,9.23
2023-02-12T09:08:22.366Z,9.21
2023-02-12T09:09:22.404Z,9.24
2023-02-12T09:10:22.361Z,9.13
2023-02-12T09:11:22.337Z,9.20
2023-02-12T09:12:22.332Z,9.18
2023-02-12T09:13:22.335Z,9.18
2023-02-12T09:14:22.301Z,9.09
2023-02-12T09:15:22.300Z,9.10
2023-02-12T09:16:22.369Z,9.20
2023-02-12T09:17:22.297Z,9.15
2023-02-12T09:18:22.296Z,9.13
2023-02-12T09:19:22.257Z,9.15
2023-02-12T09:20:22.237Z,9.13
2023-02-12T09:21:22.228Z,9.20
2023-02-12T09:22:22.219Z,9.10
2023-02-12T09:23:22.237Z,9.10
2023-02-12T09:24:22.205Z,9.23
2023-02-12T09:25:22.197Z,9.20
2023-02-12T09:26:22.183Z,9.21
2023-02-12T09:27:22.212Z,9.25
2023-02-12T09:28:22.202Z,9.27
2023-02-12T09:29:22.159Z,9.21
2023-02-12T09:30:22.132Z,9.30
2023-02-12T09:31:22.354Z,9.25
2023-02-12T09:32:22.121Z,9.27
2023-02-12T09:33:22.170Z,9.30
2023-02-12T09:34:22.103Z,9.42
2023-02-12T09:35:22.106Z,9.31
2023-02-12T09:36:22.139Z,9.42
2023-02-12T09:37:22.057Z,9.42
2023-02-12T09:38:22.090Z,9.43
2023-02-12T09:39:22.040Z,9.50
2023-02-12T09:40:22.051Z,9.57
2023-02-12T09:41:22.049Z,9.60
2023-02-12T09:42:22.003Z,9.60
2023-02-12T09:43:22.003Z,9.63
2023-02-12T09:44:21.988Z,9.60
2023-02-12T09:45:21.987Z,9.58
2023-02-12T09:46:22.010Z,9.63
2023-02-12T09:47:21.973Z,9.63
2023-02-12T09:48:21.938Z,9.68
2023-02-12T09:49:21.945Z,9.67
2023-02-12T09:50:21.930Z,9.64
2023-02-12T09:51:21.912Z,9.73
2023-02-12T09:52:21.899Z,9.73
2023-02-12T09:53:21.882Z,9.75
2023-02-12T09:54:21.899Z,9.67
2023-02-12T09:55:21.861Z,9.66
2023-02-12T09:56:21.852Z,9.82
2023-02-12T09:57:21.840Z,9.61
2023-02-12T09:58:21.834Z,9.67
2023-02-12T09:59:21.850Z,9.63
2023-02-12T10:00:21.816Z,9.66
2023-02-12T10:01:21.912Z,9.63
2023-02-12T10:02:21.802Z,9.70
2023-02-12T10:03:21.777Z,9.63
2023-02-12T10:04:21.915Z,9.68
2023-02-12T10:05:21.779Z,9.73
2023-02-12T10:06:21.749Z,9.66
2023-02-12T10:07:21.734Z,9.64
2023-02-12T10:08:24.638Z,9.60
2023-02-12T10:09:21.722Z,9.61
2023-02-12T10:10:21.724Z,9.76
2023-02-12T10:11:21.729Z,9.60
2023-02-12T10:12:21.701Z,9.71
2023-02-12T10:13:21.689Z,9.67
2023-02-12T10:14:21.690Z,9.68
2023-02-12T10:15:29.657Z,9.63
2023-02-12T10:16:21.709Z,9.76
2023-02-12T10:17:21.631Z,9.71
2023-02-12T10:18:21.627Z,9.78
2023-02-12T10:19:21.645Z,9.79
2023-02-12T10:20:21.602Z,9.82
2023-02-12T10:21:21.639Z,9.78
2023-02-12T10:22:21.577Z,9.81
2023-02-12T10:23:21.569Z,9.76
2023-02-12T10:24:21.568Z,9.76
2023-02-12T10:25:21.562Z,9.79
2023-02-12T10:26:21.542Z,9.88
2023-02-12T10:27:21.522Z,9.82
2023-02-12T10:28:21.547Z,9.86
2023-02-12T10:29:28.571Z,9.97
2023-02-12T10:30:21.512Z,9.91
2023-02-12T10:31:30.429Z,9.99
2023-02-12T10:32:21.481Z,9.88
2023-02-12T10:33:29.203Z,9.89
2023-02-12T10:34:21.458Z,9.93
2023-02-12T10:35:21.431Z,9.97
2023-02-12T10:36:21.431Z,10.00
2023-02-12T10:37:21.431Z,10.01
2023-02-12T10:38:21.415Z,9.89
2023-02-12T10:39:21.382Z,9.96
2023-02-12T10:40:21.373Z,9.91
2023-02-12T10:41:21.372Z,9.88
2023-02-12T10:42:21.350Z,9.91
2023-02-12T10:43:21.343Z,9.91
2023-02-12T10:44:21.359Z,9.94
2023-02-12T10:45:21.351Z,9.85
2023-02-12T10:46:21.362Z,9.78
2023-02-12T10:47:21.295Z,9.82
2023-02-12T10:48:21.286Z,9.85
2023-02-12T10:49:21.302Z,9.81
2023-02-12T10:50:21.268Z,9.78
2023-02-12T10:51:21.337Z,9.79
2023-02-12T10:52:21.244Z,9.82
2023-02-12T10:53:21.247Z,9.76
2023-02-12T10:54:21.232Z,9.71
2023-02-12T10:55:21.206Z,9.81
2023-02-12T10:56:21.197Z,9.66
2023-02-12T10:57:21.184Z,9.67
2023-02-12T10:58:21.176Z,9.68
2023-02-12T10:59:21.182Z,9.64
2023-02-12T11:00:21.152Z,9.70
2023-02-12T11:01:21.201Z,9.64
2023-02-12T11:02:21.130Z,9.66
2023-02-12T11:03:21.120Z,9.67
2023-02-12T11:04:21.132Z,9.66
2023-02-12T11:05:21.229Z,9.68
2023-02-12T11:06:21.105Z,9.64
2023-02-12T11:07:21.097Z,9.75
2023-02-12T11:08:21.065Z,9.83
2023-02-12T11:09:21.094Z,9.85
2023-02-12T11:10:21.212Z,9.82
2023-02-12T11:11:21.033Z,9.81
2023-02-12T11:12:21.023Z,9.91
2023-02-12T11:13:21.008Z,9.85
2023-02-12T11:14:21.017Z,9.86
2023-02-12T11:15:20.990Z,9.83
2023-02-12T11:16:21.039Z,9.94
2023-02-12T11:17:20.970Z,9.91
2023-02-12T11:18:20.956Z,9.83
2023-02-12T11:19:20.977Z,9.85
2023-02-12T11:20:21.002Z,9.85
2023-02-12T11:21:20.940Z,9.81
2023-02-12T11:22:20.918Z,9.66
2023-02-12T11:23:20.900Z,9.75
2023-02-12T11:24:20.891Z,9.66
2023-02-12T11:25:20.900Z,9.79
2023-02-12T11:26:20.901Z,9.67
2023-02-12T11:27:20.857Z,9.67
2023-02-12T11:28:20.981Z,9.63
2023-02-12T11:29:20.837Z,9.63
2023-02-12T11:30:20.991Z,9.73
2023-02-12T11:31:21.091Z,9.73
2023-02-12T11:32:20.806Z,9.70
2023-02-12T11:33:20.792Z,9.64
2023-02-12T11:34:20.807Z,9.64
2023-02-12T11:35:20.819Z,9.66
2023-02-12T11:36:20.789Z,9.76
2023-02-12T11:37:20.774Z,9.75
2023-02-12T11:38:20.739Z,9.64
2023-02-12T11:39:20.748Z,9.70
2023-02-12T11:40:20.853Z,9.68
2023-02-12T11:41:20.751Z,9.63
2023-02-12T11:42:20.699Z,9.67
2023-02-12T11:43:20.687Z,9.63
2023-02-12T11:44:20.691Z,9.60
2023-02-12T11:45:20.667Z,9.58
2023-02-12T11:46:20.818Z,9.64
2023-02-12T11:47:20.643Z,9.58
2023-02-12T11:48:20.635Z,9.58
2023-02-12T11:49:20.644Z,9.61
2023-02-12T11:50:20.613Z,9.58
2023-02-12T11:51:20.610Z,9.61
2023-02-12T11:52:20.590Z,9.48
2023-02-12T11:53:20.578Z,9.60
2023-02-12T11:54:20.587Z,9.61
2023-02-12T11:55:20.559Z,9.64
2023-02-12T11:56:20.551Z,9.63
2023-02-12T11:57:20.552Z,9.73
2023-02-12T11:58:20.526Z,9.67
2023-02-12T11:59:20.573Z,9.63
2023-02-12T12:00:20.509Z,9.64
2023-02-12T12:01:20.492Z,9.66
2023-02-12T12:02:20.556Z,9.66
2023-02-12T12:03:20.494Z,9.64
2023-02-12T12:04:20.490Z,9.68
2023-02-12T12:05:20.478Z,9.66
2023-02-12T12:06:20.437Z,9.76
2023-02-12T12:07:20.427Z,9.75
2023-02-12T12:08:20.411Z,9.73
2023-02-12T12:09:20.453Z,9.89
2023-02-12T12:10:20.402Z,9.86
2023-02-12T12:11:20.380Z,9.91
2023-02-12T12:12:20.403Z,9.86
2023-02-12T12:13:20.382Z,9.83
2023-02-12T12:14:20.365Z,9.85
2023-02-12T12:15:20.338Z,9.81
2023-02-12T12:16:20.379Z,9.70
2023-02-12T12:17:20.361Z,9.79
2023-02-12T12:18:20.314Z,9.79
2023-02-12T12:19:20.327Z,9.75
2023-02-12T12:20:20.295Z,9.76
2023-02-12T12:21:20.271Z,9.79
2023-02-12T12:22:20.284Z,9.83
2023-02-12T12:23:20.246Z,9.73
2023-02-12T12:24:20.241Z,9.73
2023-02-12T12:25:20.224Z,9.76
2023-02-12T12:26:20.214Z,9.75
2023-02-12T12:27:20.228Z,9.78
2023-02-12T12:28:20.265Z,9.75
2023-02-12T12:29:20.209Z,9.70
2023-02-12T12:30:20.175Z,9.75
2023-02-12T12:31:20.239Z,9.79
2023-02-12T12:32:20.174Z,9.75
2023-02-12T12:33:20.149Z,9.78
2023-02-12T12:34:20.173Z,9.85
2023-02-12T12:35:20.117Z,9.81
2023-02-12T12:36:20.111Z,9.82
2023-02-12T12:37:20.294Z,9.81
2023-02-12T12:38:20.087Z,9.93
2023-02-12T12:39:20.075Z,9.89
2023-02-12T12:40:20.071Z,9.96
2023-02-12T12:41:20.058Z,9.96
2023-02-12T12:42:20.064Z,10.03
2023-02-12T12:43:20.043Z,10.06
2023-02-12T12:44:20.036Z,10.10
2023-02-12T12:45:20.032Z,10.06
2023-02-12T12:46:20.060Z,10.12
2023-02-12T12:47:19.988Z,10.19
2023-02-12T12:48:19.977Z,10.19
2023-02-12T12:49:19.981Z,10.18
2023-02-12T12:50:19.956Z,10.28
2023-02-12T12:51:19.949Z,10.28
2023-02-12T12:52:19.950Z,10.28
2023-02-12T12:53:19.921Z,10.28
2023-02-12T12:54:19.919Z,10.33
2023-02-12T12:55:19.900Z,10.30
2023-02-12T12:56:19.891Z,10.25
2023-02-12T12:57:19.890Z,10.32
2023-02-12T12:58:19.876Z,10.39
2023-02-12T12:59:19.856Z,10.34
2023-02-12T13:00:21.129Z,10.40
2023-02-12T13:01:19.860Z,10.34
2023-02-12T13:02:19.903Z,10.39
2023-02-12T13:03:19.814Z,10.30
2023-02-12T13:04:19.829Z,10.19
2023-02-12T13:05:19.790Z,10.32
2023-02-12T13:06:19.782Z,10.34
2023-02-12T13:07:19.807Z,10.36
2023-02-12T13:08:19.774Z,10.32
2023-02-12T13:09:19.775Z,10.39
2023-02-12T13:10:19.740Z,10.53
2023-02-12T13:11:19.732Z,10.59
2023-02-12T13:12:19.738Z,10.52
2023-02-12T13:13:19.710Z,10.63
2023-02-12T13:14:19.706Z,10.63
2023-02-12T13:15:19.688Z,10.60
2023-02-12T13:16:19.735Z,10.60
2023-02-12T13:17:19.713Z,10.65